createdAt,value
2019-03-25T00:02:18.279Z,101682.73
2019-03-25T00:04:50.293Z,101676.59
2019-03-25T00:07:22.257Z,101669.09
2019-03-25T00:09:54.561Z,101659.33
2019-03-25T00:12:26.511Z,101651.77
2019-03-25T00:14:58.604Z,101653.13
2019-03-25T00:17:30.560Z,101641.94
2019-03-25T00:20:02.549Z,101637.66
2019-03-25T00:22:34.526Z,101626.66
2019-03-25T00:25:07.456Z,101624.11
2019-03-25T00:27:39.499Z,101616.20
2019-03-25T00:30:12.253Z,101609.72
2019-03-25T00:32:44.205Z,101600.88
2019-03-25T00:35:16.185Z,101588.91
2019-03-25T00:37:48.165Z,101594.84
2019-03-25T00:40:20.184Z,101590.33
2019-03-25T00:42:52.154Z,101581.88
2019-03-25T00:45:24.129Z,101585.13
2019-03-25T00:47:56.394Z,101575.72
2019-03-25T00:50:28.336Z,101566.61
2019-03-25T00:53:00.293Z,101565.73
2019-03-25T00:55:32.249Z,101566.89
2019-03-25T00:58:04.211Z,101565.89
2019-03-25T01:00:36.319Z,101559.52
2019-03-25T01:06:29.066Z,101548.33
2019-03-25T01:09:01.124Z,101541.36
2019-03-25T01:11:33.088Z,101531.39
2019-03-25T01:14:05.134Z,101527.20
2019-03-25T01:16:37.118Z,101519.15
2019-03-25T01:19:09.083Z,101506.23
2019-03-25T01:21:41.055Z,101504.13
2019-03-25T01:24:13.302Z,101497.31
2019-03-25T01:26:45.296Z,101498.14
2019-03-25T01:29:17.248Z,101491.33
2019-03-25T01:31:49.240Z,101490.58
2019-03-25T01:34:21.290Z,101489.23
2019-03-25T01:36:53.532Z,101478.88
2019-03-25T01:39:25.646Z,101474.11
2019-03-25T01:41:57.611Z,101465.94
2019-03-25T01:44:29.755Z,101462.41
2019-03-25T01:47:02.203Z,101457.95
2019-03-25T01:49:34.503Z,101446.39
2019-03-25T01:52:06.870Z,101443.30
2019-03-25T01:54:38.980Z,101441.06
2019-03-25T01:57:12.065Z,101430.16
2019-03-25T01:59:44.039Z,101426.66
2019-03-25T02:02:16.086Z,101406.01
2019-03-25T02:04:48.122Z,101403.25
2019-03-25T02:07:20.120Z,101393.31
2019-03-25T02:09:52.102Z,101382.25
2019-03-25T02:12:24.091Z,101375.64
2019-03-25T02:14:56.315Z,101366.73
2019-03-25T02:17:28.271Z,101364.02
2019-03-25T02:20:00.368Z,101360.39
2019-03-25T02:22:32.434Z,101356.19
2019-03-25T02:25:05.878Z,101350.41
2019-03-25T02:27:38.229Z,101339.61
2019-03-25T02:30:10.868Z,101327.17
2019-03-25T02:32:42.825Z,101321.48
2019-03-25T02:35:14.825Z,101311.81
2019-03-25T03:28:31.076Z,101221.91
2019-03-25T03:31:42.626Z,101224.39
2019-03-25T03:37:32.996Z,101217.77
2019-03-25T03:40:46.070Z,101214.52
2019-03-25T03:43:35.828Z,101208.58
2019-03-25T03:49:08.245Z,101209.70
2019-03-25T03:54:40.794Z,101200.69
2019-03-25T03:57:15.315Z,101209.46
2019-03-25T03:59:52.517Z,101204.84
2019-03-25T04:02:25.772Z,101206.69
2019-03-25T04:04:57.902Z,101197.52
2019-03-25T04:07:29.973Z,101195.28
2019-03-25T04:10:01.997Z,101197.29
2019-03-25T04:12:34.676Z,101208.78
2019-03-25T04:15:08.521Z,101219.69
2019-03-25T04:17:40.620Z,101201.80
2019-03-25T04:20:12.868Z,101204.16
2019-03-25T04:22:44.931Z,101201.73
2019-03-25T04:25:16.860Z,101202.66
2019-03-25T04:27:48.927Z,101196.35
2019-03-25T04:30:20.957Z,101200.88
2019-03-25T04:32:52.922Z,101197.62
2019-03-25T04:35:24.875Z,101206.08
2019-03-25T04:57:30.351Z,101204.05
2019-03-25T05:00:32.804Z,101201.94
2019-03-25T05:03:05.313Z,101206.67
2019-03-25T05:05:37.327Z,101204.67
2019-03-25T05:08:09.339Z,101208.02
2019-03-25T05:10:41.349Z,101208.24
2019-03-25T05:13:13.318Z,101213.79
2019-03-25T06:19:53.020Z,101218.11
2019-03-25T06:22:27.495Z,101218.48
2019-03-25T06:24:59.585Z,101227.09
2019-03-25T06:27:31.611Z,101231.73
2019-03-25T06:30:05.717Z,101232.66
2019-03-25T06:32:38.910Z,101228.70
2019-03-25T06:35:13.526Z,101229.00
2019-03-25T06:37:56.233Z,101230.48
2019-03-25T06:40:29.289Z,101235.00
2019-03-25T06:43:01.291Z,101232.72
2019-03-25T06:45:33.354Z,101238.06
2019-03-25T06:48:05.684Z,101236.73
2019-03-25T06:50:37.695Z,101247.86
2019-03-25T06:53:10.276Z,101242.55
2019-03-25T06:55:42.343Z,101245.41
2019-03-25T06:58:14.492Z,101250.59
2019-03-25T07:00:46.529Z,101254.25
2019-03-25T07:03:19.314Z,101248.59
2019-03-25T07:05:52.082Z,101257.61
2019-03-25T07:08:24.053Z,101258.05
2019-03-25T07:10:56.140Z,101259.97
2019-03-25T07:13:29.019Z,101252.23
2019-03-25T07:16:01.049Z,101259.69
2019-03-25T07:18:33.318Z,101268.23
2019-03-25T07:21:05.441Z,101257.65
2019-03-25T07:23:37.400Z,101259.51
2019-03-25T07:26:10.769Z,101270.66
2019-03-25T07:28:42.765Z,101275.55
2019-03-25T07:31:14.731Z,101276.63
2019-03-25T07:33:47.067Z,101272.06
2019-03-25T07:36:19.051Z,101272.06
2019-03-25T07:38:51.333Z,101279.60
2019-03-25T07:41:23.574Z,101276.85
2019-03-25T07:43:55.545Z,101281.49
2019-03-25T07:46:29.210Z,101286.18
2019-03-25T07:49:01.183Z,101290.39
2019-03-25T07:51:33.205Z,101289.68
2019-03-25T07:54:05.479Z,101289.38
2019-03-25T07:56:37.646Z,101285.88
2019-03-25T07:59:09.620Z,101287.22
2019-03-25T08:01:41.767Z,101290.34
2019-03-25T08:04:15.011Z,101310.75
2019-03-25T08:06:47.320Z,101307.39
2019-03-25T08:09:19.457Z,101299.89
2019-03-25T08:11:54.440Z,101318.46
2019-03-25T08:14:27.179Z,101317.84
2019-03-25T08:16:59.204Z,101324.20
2019-03-25T08:19:31.243Z,101318.13
2019-03-25T08:22:03.193Z,101327.70
2019-03-25T08:24:35.524Z,101324.09
2019-03-25T08:27:07.969Z,101331.47
2019-03-25T08:29:40.189Z,101325.32
2019-03-25T08:32:12.585Z,101329.39
2019-03-25T08:34:44.629Z,101343.55
2019-03-25T08:37:16.608Z,101338.27
2019-03-25T08:39:48.599Z,101348.30
2019-03-25T08:42:21.022Z,101346.45
2019-03-25T08:44:53.050Z,101346.58
2019-03-25T08:47:25.860Z,101361.06
2019-03-25T08:49:57.963Z,101365.13
2019-03-25T08:52:29.915Z,101368.92
2019-03-25T08:55:03.089Z,101364.67
2019-03-25T08:57:35.870Z,101374.09
2019-03-25T09:00:11.519Z,101370.17
2019-03-25T09:02:43.951Z,101377.74
2019-03-25T09:05:16.462Z,101383.48
2019-03-25T09:07:48.986Z,101384.66
2019-03-25T09:10:21.216Z,101391.02
2019-03-25T09:12:53.328Z,101395.61
2019-03-25T09:15:26.038Z,101395.59
2019-03-25T09:17:58.064Z,101407.75
2019-03-25T09:20:30.009Z,101418.66
2019-03-25T09:23:02.046Z,101419.82
2019-03-25T09:25:34.001Z,101415.47
2019-03-25T09:28:06.234Z,101421.20
2019-03-25T09:30:57.964Z,101419.54
2019-03-25T09:33:30.208Z,101413.81
2019-03-25T09:36:02.253Z,101422.34
2019-03-25T09:38:34.343Z,101418.38
2019-03-25T09:41:06.710Z,101427.39
2019-03-25T09:43:38.858Z,101427.70
2019-03-25T09:46:10.878Z,101428.88
2019-03-25T09:48:43.082Z,101439.02
2019-03-25T09:51:15.472Z,101434.29
2019-03-25T09:53:47.432Z,101443.75
2019-03-25T09:56:19.532Z,101445.97
2019-03-25T09:58:52.901Z,101439.81
2019-03-25T10:01:25.173Z,101446.61
2019-03-25T10:03:57.422Z,101444.06
2019-03-25T10:06:29.735Z,101450.02
2019-03-25T10:09:02.493Z,101445.68
2019-03-25T10:11:34.485Z,101437.30
2019-03-25T10:14:06.450Z,101446.84
2019-03-25T10:16:38.478Z,101465.17
2019-03-25T10:19:10.516Z,101458.94
2019-03-25T10:21:42.557Z,101454.08
2019-03-25T10:24:14.715Z,101464.06
2019-03-25T10:26:47.299Z,101460.11
2019-03-25T10:29:19.318Z,101465.91
2019-03-25T10:31:51.408Z,101464.08
2019-03-25T10:34:24.572Z,101476.81
2019-03-25T10:36:56.846Z,101473.66
2019-03-25T10:39:28.959Z,101480.29
2019-03-25T10:42:00.987Z,101486.41
2019-03-25T10:44:32.960Z,101489.03
2019-03-25T10:47:05.119Z,101499.02
2019-03-25T10:49:37.236Z,101495.34
2019-03-25T10:52:09.196Z,101504.84
2019-03-25T10:54:41.437Z,101502.11
2019-03-25T10:57:13.525Z,101512.85
2019-03-25T10:59:48.071Z,101513.77
2019-03-25T11:02:20.170Z,101530.33
2019-03-25T11:04:52.252Z,101516.41
2019-03-25T11:07:25.998Z,101516.73
2019-03-25T11:09:58.086Z,101531.23
2019-03-25T11:12:30.078Z,101533.72
2019-03-25T11:15:02.105Z,101529.80
2019-03-25T11:17:34.165Z,101551.24
2019-03-25T11:20:08.303Z,101542.77
2019-03-25T11:22:40.368Z,101544.96
2019-03-25T11:25:13.094Z,101550.25
2019-03-25T11:27:54.109Z,101546.16
2019-03-25T11:30:40.040Z,101544.34
2019-03-25T11:33:12.786Z,101555.09
2019-03-25T11:35:45.731Z,101556.52
2019-03-25T11:38:17.819Z,101552.08
2019-03-25T11:40:49.798Z,101554.50
2019-03-25T11:43:21.878Z,101551.48
2019-03-25T11:45:54.225Z,101567.88
2019-03-25T11:48:26.255Z,101562.55
2019-03-25T11:51:00.128Z,101564.66
2019-03-25T11:53:32.261Z,101567.15
2019-03-25T11:56:10.737Z,101582.86
2019-03-25T11:58:43.260Z,101579.37
2019-03-25T12:01:17.247Z,101581.24
2019-03-25T12:03:49.736Z,101579.37
2019-03-25T12:06:22.193Z,101587.59
2019-03-25T12:08:54.240Z,101577.97
2019-03-25T12:11:26.207Z,101593.73
2019-03-25T12:13:59.053Z,101595.89
2019-03-25T12:16:31.513Z,101593.84
2019-03-25T12:19:03.925Z,101600.60
2019-03-25T12:21:36.988Z,101606.59
2019-03-25T12:24:09.018Z,101611.66
2019-03-25T12:26:41.016Z,101624.31
2019-03-25T12:29:12.992Z,101626.80
2019-03-25T12:31:45.188Z,101632.69
2019-03-25T12:34:17.535Z,101655.00
2019-03-25T12:36:49.542Z,101642.89
2019-03-25T12:39:21.969Z,101650.26
2019-03-25T12:41:54.014Z,101648.17
2019-03-25T12:44:26.230Z,101651.70
2019-03-25T12:46:58.213Z,101644.95
2019-03-25T12:49:32.486Z,101640.72
2019-03-25T12:52:04.543Z,101646.71
2019-03-25T12:54:36.477Z,101643.80
2019-03-25T12:57:08.792Z,101647.58
2019-03-25T12:59:41.748Z,101656.86
2019-03-25T13:02:13.858Z,101671.23
2019-03-25T13:04:45.981Z,101661.05
2019-03-25T13:07:18.766Z,101669.99
2019-03-25T13:09:50.781Z,101668.03
2019-03-25T13:12:22.784Z,101676.17
2019-03-25T13:14:54.848Z,101669.74
2019-03-25T13:17:26.811Z,101665.05
2019-03-25T13:19:58.921Z,101676.12
2019-03-25T13:22:30.923Z,101682.55
2019-03-25T13:25:02.889Z,101686.55
2019-03-25T13:27:34.831Z,101679.72
2019-03-25T13:30:09.397Z,101699.03
2019-03-25T13:32:41.360Z,101693.16
2019-03-25T13:35:13.491Z,101700.73
2019-03-25T13:37:45.423Z,101695.23
2019-03-25T13:40:17.870Z,101708.90
2019-03-25T13:42:49.921Z,101700.31
2019-03-25T13:45:22.063Z,101696.73
2019-03-25T13:47:54.045Z,101703.56
2019-03-25T13:50:26.424Z,101712.50
2019-03-25T13:52:58.396Z,101719.88
2019-03-25T13:55:30.369Z,101723.73
2019-03-25T13:58:02.440Z,101732.92
2019-03-25T14:00:40.321Z,101734.19
2019-03-25T14:03:16.378Z,101735.39
2019-03-25T14:08:55.817Z,101755.09
2019-03-25T14:11:45.902Z,101755.49
2019-03-25T14:17:15.736Z,101757.16
2019-03-25T14:20:03.411Z,101765.28
2019-03-25T14:25:40.960Z,101785.95
2019-03-25T14:28:27.582Z,101786.84
2019-03-25T14:46:43.686Z,101826.72
2019-03-25T14:55:53.954Z,101839.34
2019-03-25T15:14:47.871Z,101883.84
2019-03-25T15:20:19.540Z,101880.00
2019-03-25T15:32:18.700Z,101904.87
2019-03-25T15:37:59.386Z,101924.96
2019-03-25T15:40:34.536Z,101947.64
2019-03-25T15:43:07.483Z,101946.50
2019-03-25T15:45:40.057Z,101950.41
2019-03-25T15:48:12.174Z,101955.45
2019-03-25T15:50:44.290Z,101964.44
2019-03-25T15:53:19.256Z,101969.45
2019-03-25T15:55:52.083Z,101969.96
2019-03-25T15:58:26.560Z,101987.53
2019-03-25T16:00:58.846Z,101985.30
2019-03-25T16:03:31.116Z,102001.55
2019-03-25T16:06:06.258Z,102000.91
2019-03-25T16:08:38.350Z,102014.02
2019-03-25T16:11:12.208Z,102022.98
2019-03-25T16:13:45.252Z,102030.33
2019-03-25T16:16:20.532Z,102033.75
2019-03-25T16:24:57.210Z,102060.50
2019-03-25T16:27:39.607Z,102070.69
2019-03-25T16:30:14.642Z,102068.21
2019-03-25T16:32:48.918Z,102082.62
2019-03-25T16:44:18.572Z,102112.33
2019-03-25T16:46:54.722Z,102119.49
2019-03-25T16:49:26.867Z,102123.70
2019-03-25T16:54:56.495Z,102133.89
2019-03-25T16:57:42.655Z,102133.44
2019-03-25T17:00:26.570Z,102137.45
2019-03-25T17:02:51.667Z,102137.93
2019-03-25T17:05:25.556Z,102140.17
2019-03-25T17:07:58.080Z,102147.11
2019-03-25T17:10:31.173Z,102157.19
2019-03-25T17:13:10.153Z,102158.56
2019-03-25T17:15:46.227Z,102171.34
2019-03-25T17:18:18.567Z,102174.21
2019-03-25T17:20:52.767Z,102180.73
2019-03-25T17:23:25.458Z,102182.95
2019-03-25T17:25:57.556Z,102187.62
2019-03-25T17:28:30.030Z,102192.28
2019-03-25T17:31:03.235Z,102190.42
2019-03-25T17:33:36.320Z,102190.75
2019-03-25T17:36:08.268Z,102213.22
2019-03-25T17:38:41.038Z,102214.03
2019-03-25T17:41:16.202Z,102219.09
2019-03-25T17:43:48.285Z,102223.23
2019-03-25T17:46:23.213Z,102235.03
2019-03-25T17:48:56.283Z,102237.94
2019-03-25T17:51:28.849Z,102237.77
2019-03-25T17:54:02.050Z,102245.02
2019-03-25T17:56:34.687Z,102249.09
2019-03-25T17:59:06.775Z,102243.55
2019-03-25T18:01:39.164Z,102259.59
2019-03-25T18:04:11.404Z,102255.71
2019-03-25T18:06:44.621Z,102249.11
2019-03-25T18:09:20.084Z,102252.95
2019-03-25T18:11:54.665Z,102264.17
2019-03-25T18:14:28.516Z,102259.61
2019-03-25T18:17:00.982Z,102281.08
2019-03-25T18:19:38.347Z,102279.45
2019-03-25T18:22:10.446Z,102286.80
2019-03-25T18:24:42.555Z,102285.45
2019-03-25T18:27:14.605Z,102295.30
2019-03-25T18:29:47.438Z,102288.09
2019-03-25T18:32:21.209Z,102296.80
2019-03-25T18:34:53.576Z,102297.91
2019-03-25T18:37:25.658Z,102297.88
2019-03-25T18:39:57.723Z,102302.16
2019-03-25T18:42:30.253Z,102306.52
2019-03-25T18:45:02.303Z,102305.81
2019-03-25T18:47:34.323Z,102302.39
2019-03-25T18:50:08.607Z,102303.20
2019-03-25T18:52:40.740Z,102303.85
2019-03-25T18:55:12.943Z,102319.03
2019-03-25T18:57:49.674Z,102322.25
2019-03-25T19:00:37.158Z,102322.38
2019-03-25T20:11:06.041Z,102422.63
2019-03-25T20:23:24.583Z,102427.38
2019-03-25T20:49:27.486Z,102459.79
2019-03-25T20:55:14.819Z,102460.13
2019-03-25T20:57:46.751Z,102453.21
2019-03-25T21:00:39.688Z,102451.47
2019-03-25T21:03:12.050Z,102461.50
2019-03-25T21:05:44.093Z,102460.04
2019-03-25T21:08:17.175Z,102466.98
2019-03-25T21:10:52.845Z,102468.34
2019-03-25T21:13:26.239Z,102477.98
2019-03-25T21:15:58.545Z,102473.13
2019-03-25T21:22:03.587Z,102481.69
2019-03-25T21:37:12.180Z,102488.03
2019-03-25T21:52:40.811Z,102496.34
2019-03-25T22:01:25.506Z,102500.28
2019-03-25T22:04:04.198Z,102498.38
2019-03-25T22:06:41.728Z,102503.12
2019-03-25T22:09:18.891Z,102508.09
2019-03-25T22:18:09.403Z,102516.97
2019-03-25T22:20:46.599Z,102522.25
2019-03-25T22:23:18.793Z,102521.89
2019-03-25T22:25:51.115Z,102529.03
2019-03-25T22:28:23.430Z,102526.59
2019-03-25T22:30:55.460Z,102526.08
2019-03-25T22:33:28.097Z,102522.08
2019-03-25T22:36:00.072Z,102531.45
2019-03-25T22:38:32.041Z,102532.33
2019-03-25T22:41:07.270Z,102537.02
2019-03-25T22:43:52.176Z,102536.79
2019-03-25T22:46:29.474Z,102539.39
2019-03-25T22:49:06.649Z,102537.86
2019-03-25T22:51:39.466Z,102534.30
2019-03-25T22:54:13.345Z,102531.86
2019-03-25T22:56:50.019Z,102537.72
2019-03-25T22:59:25.627Z,102533.84
2019-03-25T23:02:01.675Z,102534.98
2019-03-25T23:04:37.809Z,102541.28
2019-03-25T23:07:15.760Z,102536.39
2019-03-25T23:09:50.150Z,102535.28
2019-03-25T23:12:23.873Z,102532.14
2019-03-25T23:14:58.437Z,102534.25
2019-03-25T23:17:32.327Z,102528.60
2019-03-25T23:20:07.792Z,102522.70
2019-03-25T23:22:40.880Z,102517.01
2019-03-25T23:25:16.130Z,102516.83
2019-03-25T23:27:55.081Z,102512.45
2019-03-25T23:30:28.127Z,102517.56
2019-03-25T23:33:06.052Z,102514.34
2019-03-25T23:35:42.176Z,102516.84
2019-03-25T23:38:22.638Z,102516.20
2019-03-25T23:40:58.134Z,102507.44
2019-03-25T23:43:30.956Z,102508.72
2019-03-25T23:46:05.987Z,102507.53
2019-03-25T23:48:39.150Z,102506.09
2019-03-25T23:51:15.220Z,102504.48
2019-03-25T23:53:49.430Z,102504.43
2019-03-25T23:56:24.412Z,102504.66
2019-03-25T23:59:03.756Z,102505.20
